createdAt,value
2019-03-09T00:00:17.650Z,99310.27
2019-03-09T00:02:46.048Z,99308.53
2019-03-09T00:05:14.477Z,99309.59
2019-03-09T00:07:42.877Z,99301.48
2019-03-09T00:10:11.319Z,99298.81
2019-03-09T00:12:39.701Z,99294.44
2019-03-09T00:15:08.697Z,99294.44
2019-03-09T00:17:37.266Z,99293.57
2019-03-09T00:20:07.740Z,99295.41
2019-03-09T00:22:36.208Z,99288.33
2019-03-09T00:25:07.032Z,99287.50
2019-03-09T00:27:37.067Z,99291.14
2019-03-09T00:30:15.390Z,99295.61
2019-03-09T00:32:43.785Z,99288.56
2019-03-09T00:35:12.180Z,99286.83
2019-03-09T00:37:40.715Z,99291.34
2019-03-09T00:40:11.164Z,99294.11
2019-03-09T00:42:39.583Z,99300.31
2019-03-09T00:45:08.588Z,99293.23
2019-03-09T00:47:37.052Z,99293.34
2019-03-09T00:50:08.187Z,99293.34
2019-03-09T00:52:36.622Z,99290.67
2019-03-09T00:55:08.137Z,99291.64
2019-03-09T00:57:36.515Z,99292.61
2019-03-09T01:00:07.802Z,99281.05
2019-03-09T01:02:36.197Z,99275.81
2019-03-09T01:05:05.622Z,99273.14
2019-03-09T01:07:34.087Z,99267.80
2019-03-09T01:10:02.515Z,99276.78
2019-03-09T01:12:30.972Z,99282.13
2019-03-09T01:14:59.372Z,99287.47
2019-03-09T01:17:27.761Z,99283.95
2019-03-09T01:19:56.178Z,99278.72
2019-03-09T01:22:24.548Z,99281.39
2019-03-09T01:24:52.926Z,99278.72
2019-03-09T01:27:21.354Z,99272.61
2019-03-09T01:29:49.814Z,99274.45
2019-03-09T01:32:18.201Z,99278.92
2019-03-09T01:34:46.610Z,99282.45
2019-03-09T01:37:14.999Z,99294.94
2019-03-09T01:39:43.387Z,99293.23
2019-03-09T01:42:11.784Z,99289.70
2019-03-09T01:44:40.170Z,99286.16
2019-03-09T01:47:08.554Z,99288.83
2019-03-09T01:49:36.974Z,99294.17
2019-03-09T01:52:05.365Z,99300.47
2019-03-09T01:54:33.927Z,99297.80
2019-03-09T01:57:02.315Z,99287.22
2019-03-09T01:59:30.768Z,99296.09
2019-03-09T02:01:59.233Z,99294.40
2019-03-09T02:04:27.620Z,99290.86
2019-03-09T02:06:56.047Z,99286.48
2019-03-09T02:09:24.606Z,99281.15
2019-03-09T02:11:53.030Z,99279.31
2019-03-09T02:14:21.418Z,99279.45
2019-03-09T02:16:49.911Z,99271.44
2019-03-09T02:19:18.365Z,99271.44
2019-03-09T02:21:46.783Z,99275.05
2019-03-09T02:24:15.169Z,99280.38
2019-03-09T02:26:43.582Z,99287.55
2019-03-09T02:29:11.973Z,99277.81
2019-03-09T02:31:40.466Z,99289.36
2019-03-09T02:34:08.928Z,99278.67
2019-03-09T02:36:37.341Z,99292.13
2019-03-09T02:39:07.921Z,99282.31
2019-03-09T02:41:36.346Z,99277.08
2019-03-09T02:44:04.746Z,99285.08
2019-03-09T02:46:33.160Z,99275.38
2019-03-09T02:49:01.602Z,99279.74
2019-03-09T02:51:30.059Z,99278.04
2019-03-09T02:53:58.498Z,99281.64
2019-03-09T02:56:27.045Z,99280.81
2019-03-09T02:58:55.471Z,99279.94
2019-03-09T03:01:31.374Z,99279.10
2019-03-09T03:03:59.765Z,99278.23
2019-03-09T03:06:28.162Z,99273.77
2019-03-09T03:08:56.638Z,99265.86
2019-03-09T03:11:25.040Z,99266.70
2019-03-09T03:13:53.419Z,99272.03
2019-03-09T03:16:21.802Z,99258.78
2019-03-09T03:18:50.227Z,99268.63
2019-03-09T03:21:18.609Z,99273.09
2019-03-09T03:23:47.035Z,99266.06
2019-03-09T03:26:15.427Z,99266.06
2019-03-09T03:28:43.852Z,99269.69
2019-03-09T03:31:12.237Z,99269.69
2019-03-09T03:33:40.705Z,99267.95
2019-03-09T03:36:09.338Z,99267.95
2019-03-09T03:38:37.795Z,99273.30
2019-03-09T03:41:06.165Z,99276.92
2019-03-09T03:43:34.620Z,99266.25
2019-03-09T03:46:03.009Z,99271.69
2019-03-09T03:48:31.475Z,99262.84
2019-03-09T03:50:59.861Z,99264.64
2019-03-09T03:53:28.259Z,99268.19
2019-03-09T03:55:56.641Z,99264.75
2019-03-09T03:58:25.035Z,99271.78
2019-03-09T04:00:53.427Z,99262.08
2019-03-09T04:03:21.816Z,99262.08
2019-03-09T04:05:50.203Z,99265.71
2019-03-09T04:08:18.591Z,99263.05
2019-03-09T04:10:46.987Z,99259.50
2019-03-09T04:13:15.384Z,99254.17
2019-03-09T04:15:43.844Z,99254.27
2019-03-09T04:18:12.224Z,99254.27
2019-03-09T04:20:40.661Z,99248.93
2019-03-09T04:23:09.048Z,99248.09
2019-03-09T04:25:37.446Z,99243.66
2019-03-09T04:28:05.837Z,99244.63
2019-03-09T04:30:34.226Z,99244.53
2019-03-09T04:33:02.630Z,99242.83
2019-03-09T04:35:31.023Z,99232.25
2019-03-09T04:37:59.409Z,99220.71
2019-03-09T04:40:27.800Z,99220.71
2019-03-09T04:42:56.213Z,99216.34
2019-03-09T04:45:24.647Z,99216.34
2019-03-09T04:47:53.077Z,99218.14
2019-03-09T04:50:21.461Z,99216.44
2019-03-09T04:52:49.905Z,99216.44
2019-03-09T04:55:18.292Z,99211.11
2019-03-09T04:57:46.743Z,99215.61
2019-03-09T05:00:15.940Z,99208.53
2019-03-09T05:02:44.353Z,99213.03
2019-03-09T05:05:12.982Z,99219.20
2019-03-09T05:07:52.904Z,99220.17
2019-03-09T05:10:52.078Z,99217.50
2019-03-09T05:13:26.801Z,99217.50
2019-03-09T05:15:55.194Z,99214.09
2019-03-09T05:18:24.094Z,99221.14
2019-03-09T05:20:52.544Z,99215.91
2019-03-09T05:23:21.004Z,99218.56
2019-03-09T05:25:49.389Z,99215.91
2019-03-09T05:28:17.962Z,99217.70
2019-03-09T05:30:47.115Z,99225.70
2019-03-09T05:33:15.521Z,99216.00
2019-03-09T05:35:43.903Z,99214.30
2019-03-09T05:38:12.333Z,99218.67
2019-03-09T05:40:40.718Z,99218.67
2019-03-09T05:43:09.151Z,99212.46
2019-03-09T05:45:37.541Z,99205.33
2019-03-09T05:48:05.955Z,99210.66
2019-03-09T05:50:34.352Z,99211.53
2019-03-09T05:53:11.254Z,99207.03
2019-03-09T05:55:39.642Z,99199.99
2019-03-09T05:58:08.072Z,99193.69
2019-03-09T06:00:37.653Z,99199.99
2019-03-09T06:03:06.071Z,99191.99
2019-03-09T06:05:37.067Z,99191.89
2019-03-09T06:08:06.135Z,99185.69
2019-03-09T06:10:34.567Z,99188.36
2019-03-09T06:13:02.934Z,99176.84
2019-03-09T06:15:31.334Z,99175.98
2019-03-09T06:17:59.707Z,99171.41
2019-03-09T06:20:28.099Z,99174.08
2019-03-09T06:22:56.542Z,99177.69
2019-03-09T06:25:24.934Z,99169.68
2019-03-09T06:27:53.329Z,99174.08
2019-03-09T06:30:21.722Z,99174.81
2019-03-09T06:33:18.771Z,99164.14
2019-03-09T06:35:53.278Z,99168.52
2019-03-09T06:38:30.737Z,99158.61
2019-03-09T06:41:02.852Z,99151.34
2019-03-09T06:43:29.247Z,99149.64
2019-03-09T06:45:57.638Z,99150.41
2019-03-09T06:48:26.036Z,99149.44
2019-03-09T06:50:54.430Z,99153.81
2019-03-09T06:53:22.854Z,99155.55
2019-03-09T06:55:51.218Z,99150.97
2019-03-09T06:58:19.603Z,99152.67
2019-03-09T07:00:48.142Z,99149.80
2019-03-09T07:03:16.577Z,99152.47
2019-03-09T07:05:45.100Z,99154.07
2019-03-09T07:08:13.558Z,99142.42
2019-03-09T07:10:41.992Z,99137.95
2019-03-09T07:13:10.378Z,99141.36
2019-03-09T07:15:40.546Z,99146.70
2019-03-09T07:18:14.813Z,99140.42
2019-03-09T07:20:43.229Z,99139.45
2019-03-09T07:23:11.613Z,99134.84
2019-03-09T07:25:40.034Z,99125.91
2019-03-09T07:28:10.184Z,99124.84
2019-03-09T07:30:38.609Z,99123.86
2019-03-09T07:33:06.999Z,99110.42
2019-03-09T07:35:35.483Z,99108.48
2019-03-09T07:38:03.874Z,99102.93
2019-03-09T07:40:32.269Z,99107.30
2019-03-09T07:43:00.676Z,99107.95
2019-03-09T07:45:29.077Z,99100.78
2019-03-09T07:47:57.467Z,99093.54
2019-03-09T07:50:25.857Z,99095.13
2019-03-09T07:52:54.245Z,99093.95
2019-03-09T07:55:23.109Z,99084.87
2019-03-09T07:57:51.498Z,99084.66
2019-03-09T08:00:20.947Z,99081.77
2019-03-09T08:02:49.465Z,99070.84
2019-03-09T08:05:17.859Z,99072.34
2019-03-09T08:07:46.255Z,99076.49
2019-03-09T08:10:19.435Z,99073.61
2019-03-09T08:12:47.831Z,99069.75
2019-03-09T08:15:20.466Z,99069.32
2019-03-09T08:17:48.860Z,99060.15
2019-03-09T08:20:18.493Z,99049.00
2019-03-09T08:22:46.882Z,99046.86
2019-03-09T08:25:22.822Z,99054.63
2019-03-09T08:27:51.292Z,99051.95
2019-03-09T08:30:26.912Z,99046.61
2019-03-09T08:32:55.372Z,99050.88
2019-03-09T08:35:23.779Z,99047.27
2019-03-09T08:37:52.405Z,99041.80
2019-03-09T08:40:21.897Z,99042.53
2019-03-09T08:42:50.377Z,99029.92
2019-03-09T08:45:22.577Z,99028.47
2019-03-09T08:47:52.526Z,99015.64
2019-03-09T08:50:22.494Z,99013.23
2019-03-09T08:52:50.935Z,99011.78
2019-03-09T08:55:20.987Z,99006.95
2019-03-09T08:57:49.381Z,99002.09
2019-03-09T09:00:26.562Z,98999.08
2019-03-09T09:02:54.907Z,98990.69
2019-03-09T09:05:23.410Z,98979.80
2019-03-09T09:07:51.878Z,98992.07
2019-03-09T09:10:20.327Z,98975.67
2019-03-09T09:12:48.867Z,98978.84
2019-03-09T09:15:18.298Z,98979.20
2019-03-09T09:17:46.712Z,98969.84
2019-03-09T09:20:27.854Z,98967.42
2019-03-09T09:22:56.255Z,98961.56
2019-03-09T09:25:24.703Z,98950.63
2019-03-09T09:27:54.034Z,98943.34
2019-03-09T09:30:28.157Z,98953.06
2019-03-09T09:32:56.631Z,98945.62
2019-03-09T09:35:25.013Z,98939.91
2019-03-09T09:37:53.572Z,98924.20
2019-03-09T09:40:26.192Z,98926.28
2019-03-09T09:42:54.474Z,98925.55
2019-03-09T09:45:23.133Z,98934.64
2019-03-09T09:47:51.533Z,98934.73
2019-03-09T09:50:19.986Z,98924.23
2019-03-09T09:52:48.375Z,98917.16
2019-03-09T09:55:18.959Z,98909.20
2019-03-09T09:57:47.474Z,98902.47
2019-03-09T10:00:17.802Z,98899.52
2019-03-09T10:02:46.202Z,98903.37
2019-03-09T10:05:14.591Z,98898.64
2019-03-09T10:07:42.988Z,98880.97
2019-03-09T10:10:16.017Z,98872.02
2019-03-09T10:12:44.417Z,98859.67
2019-03-09T10:15:24.447Z,98861.72
2019-03-09T10:17:52.820Z,98857.63
2019-03-09T10:20:21.212Z,98858.92
2019-03-09T10:22:49.652Z,98847.33
2019-03-09T10:25:18.041Z,98853.47
2019-03-09T10:27:46.436Z,98852.47
2019-03-09T10:30:20.572Z,98837.75
2019-03-09T10:32:49.037Z,98830.22
2019-03-09T10:35:17.449Z,98844.78
2019-03-09T10:37:46.067Z,98853.13
2019-03-09T10:40:15.609Z,98842.06
2019-03-09T10:42:44.117Z,98841.57
2019-03-09T10:45:23.019Z,98830.19
2019-03-09T10:47:51.727Z,98840.48
2019-03-09T10:50:20.589Z,98835.81
2019-03-09T10:52:48.990Z,98806.89
2019-03-09T10:55:28.082Z,98813.80
2019-03-09T10:57:56.476Z,98805.60
2019-03-09T11:00:36.786Z,98812.23
2019-03-09T11:03:05.245Z,98805.02
2019-03-09T11:05:33.692Z,98803.85
2019-03-09T11:08:02.107Z,98797.84
2019-03-09T11:10:30.508Z,98780.84
2019-03-09T11:12:59.168Z,98795.42
2019-03-09T11:15:27.572Z,98780.55
2019-03-09T11:17:55.990Z,98773.25
2019-03-09T11:20:24.392Z,98760.75
2019-03-09T11:22:52.797Z,98764.59
2019-03-09T11:25:21.185Z,98741.92
2019-03-09T11:27:49.578Z,98744.08
2019-03-09T11:30:20.419Z,98733.36
2019-03-09T11:32:48.819Z,98728.56
2019-03-09T11:35:17.214Z,98711.04
2019-03-09T11:37:45.718Z,98695.65
2019-03-09T11:40:14.247Z,98693.31
2019-03-09T11:42:42.638Z,98696.06
2019-03-09T11:45:16.226Z,98688.58
2019-03-09T11:47:44.629Z,98696.31
2019-03-09T11:50:15.163Z,98674.02
2019-03-09T11:52:43.570Z,98675.13
2019-03-09T11:55:14.350Z,98667.08
2019-03-09T11:57:42.782Z,98672.04
2019-03-09T12:00:15.762Z,98667.05
2019-03-09T12:02:44.159Z,98653.84
2019-03-09T12:05:12.575Z,98670.03
2019-03-09T12:07:41.049Z,98672.48
2019-03-09T12:10:10.877Z,98668.52
2019-03-09T12:12:39.275Z,98682.27
2019-03-09T12:15:14.910Z,98674.36
2019-03-09T12:17:43.309Z,98676.35
2019-03-09T12:20:13.019Z,98674.63
2019-03-09T12:22:41.422Z,98670.08
2019-03-09T12:25:11.995Z,98669.94
2019-03-09T12:27:40.425Z,98674.33
2019-03-09T12:30:11.568Z,98685.73
2019-03-09T12:32:40.048Z,98666.94
2019-03-09T12:35:09.078Z,98654.23
2019-03-09T12:37:37.350Z,98650.53
2019-03-09T12:40:11.269Z,98652.06
2019-03-09T12:42:39.813Z,98654.58
2019-03-09T12:45:10.234Z,98665.09
2019-03-09T12:47:38.843Z,98651.27
2019-03-09T12:50:10.729Z,98659.99
2019-03-09T12:52:39.205Z,98663.32
2019-03-09T12:55:07.627Z,98671.19
2019-03-09T12:57:36.056Z,98663.70
2019-03-09T13:00:05.809Z,98687.48
2019-03-09T13:02:34.199Z,98689.85
2019-03-09T13:05:02.590Z,98677.96
2019-03-09T13:07:31.022Z,98688.22
2019-03-09T13:09:59.404Z,98699.41
2019-03-09T13:12:27.929Z,98673.02
2019-03-09T13:14:56.314Z,98697.64
2019-03-09T13:17:24.770Z,98702.55
2019-03-09T13:19:53.159Z,98703.78
2019-03-09T13:22:21.585Z,98705.14
2019-03-09T13:24:49.973Z,98703.70
2019-03-09T13:27:18.366Z,98699.59
2019-03-09T13:29:48.040Z,98706.17
2019-03-09T13:32:16.439Z,98705.55
2019-03-09T13:34:44.843Z,98708.62
2019-03-09T13:37:13.236Z,98717.89
2019-03-09T13:39:41.649Z,98720.81
2019-03-09T13:42:10.038Z,98734.43
2019-03-09T13:44:38.430Z,98747.09
2019-03-09T13:47:06.931Z,98739.31
2019-03-09T13:49:35.326Z,98742.23
2019-03-09T13:52:03.711Z,98744.31
2019-03-09T13:54:32.104Z,98736.50
2019-03-09T13:57:00.499Z,98721.31
2019-03-09T13:59:28.895Z,98716.92
2019-03-09T14:01:57.286Z,98721.56
2019-03-09T14:04:25.747Z,98712.55
2019-03-09T14:06:54.137Z,98708.69
2019-03-09T14:09:22.530Z,98721.80
2019-03-09T14:11:50.920Z,98709.67
2019-03-09T14:14:19.310Z,98708.91
2019-03-09T14:16:47.721Z,98702.78
2019-03-09T14:19:16.113Z,98704.23
2019-03-09T14:21:44.506Z,98705.13
2019-03-09T14:24:12.907Z,98698.90
2019-03-09T14:26:41.369Z,98695.96
2019-03-09T14:29:09.818Z,98695.41
2019-03-09T14:31:38.214Z,98688.16
2019-03-09T14:34:06.623Z,98696.11
2019-03-09T14:36:35.020Z,98693.25
2019-03-09T14:39:04.868Z,98694.09
2019-03-09T14:41:33.255Z,98691.27
2019-03-09T14:44:01.657Z,98686.44
2019-03-09T14:46:30.121Z,98686.94
2019-03-09T14:48:58.591Z,98677.17
2019-03-09T14:51:27.002Z,98673.34
2019-03-09T14:53:55.396Z,98664.00
2019-03-09T14:56:23.887Z,98669.89
2019-03-09T14:58:52.283Z,98662.54
2019-03-09T15:01:20.671Z,98661.50
2019-03-09T15:03:49.103Z,98655.97
2019-03-09T15:06:21.993Z,98653.97
2019-03-09T15:08:51.660Z,98648.44
2019-03-09T15:11:20.048Z,98646.27
2019-03-09T15:13:48.483Z,98639.74
2019-03-09T15:16:16.876Z,98634.93
2019-03-09T15:18:45.295Z,98640.52
2019-03-09T15:21:13.694Z,98635.70
2019-03-09T15:23:42.225Z,98635.09
2019-03-09T15:26:10.659Z,98635.50
2019-03-09T15:28:39.056Z,98637.70
2019-03-09T15:31:07.459Z,98633.59
2019-03-09T15:33:35.950Z,98646.52
2019-03-09T15:36:04.436Z,98627.34
2019-03-09T15:38:32.851Z,98629.53
2019-03-09T15:41:01.361Z,98633.44
2019-03-09T15:43:29.816Z,98632.16
2019-03-09T15:45:58.212Z,98627.19
2019-03-09T15:48:26.650Z,98636.44
2019-03-09T15:50:55.022Z,98635.98
2019-03-09T15:53:25.021Z,98637.22
2019-03-09T15:55:53.411Z,98633.89
2019-03-09T15:58:21.850Z,98625.30
2019-03-09T16:00:50.320Z,98627.38
2019-03-09T16:03:18.709Z,98628.61
2019-03-09T16:05:47.099Z,98628.86
2019-03-09T16:08:16.988Z,98622.89
2019-03-09T16:10:45.415Z,98612.48
2019-03-09T16:13:13.877Z,98615.52
2019-03-09T16:15:42.274Z,98613.95
2019-03-09T16:18:10.732Z,98603.63
2019-03-09T16:20:39.132Z,98603.86
2019-03-09T16:23:07.896Z,98609.48
2019-03-09T16:25:36.317Z,98598.17
2019-03-09T16:28:04.760Z,98587.77
2019-03-09T16:30:33.192Z,98588.00
2019-03-09T16:33:01.579Z,98588.25
2019-03-09T16:35:30.034Z,98572.45
2019-03-09T16:37:58.445Z,98573.56
2019-03-09T16:40:26.886Z,98574.66
2019-03-09T16:42:55.281Z,98563.39
2019-03-09T16:45:23.719Z,98570.66
2019-03-09T16:47:52.116Z,98554.05
2019-03-09T16:50:20.526Z,98555.98
2019-03-09T16:52:48.950Z,98561.44
2019-03-09T16:55:17.467Z,98573.97
2019-03-09T16:57:45.915Z,98569.69
2019-03-09T17:00:19.167Z,98564.59
2019-03-09T17:02:47.550Z,98578.92
2019-03-09T17:05:15.986Z,98572.96
2019-03-09T17:07:44.386Z,98571.27
2019-03-09T17:10:14.235Z,98580.27
2019-03-09T17:12:42.627Z,98576.02
2019-03-09T17:15:17.257Z,98571.62
2019-03-09T17:17:45.654Z,98562.91
2019-03-09T17:20:17.942Z,98560.36
2019-03-09T17:22:46.334Z,98559.61
2019-03-09T17:25:15.364Z,98562.44
2019-03-09T17:27:43.747Z,98556.23
2019-03-09T17:30:19.978Z,98560.83
2019-03-09T17:32:48.438Z,98558.31
2019-03-09T17:35:16.841Z,98561.10
2019-03-09T17:37:45.242Z,98549.67
2019-03-09T17:40:15.158Z,98545.20
2019-03-09T17:42:43.561Z,98542.65
2019-03-09T17:45:14.751Z,98539.98
2019-03-09T17:47:43.178Z,98525.06
2019-03-09T17:50:13.292Z,98528.55
2019-03-09T17:52:41.671Z,98527.84
2019-03-09T17:55:11.144Z,98532.44
2019-03-09T17:57:39.541Z,98523.73
2019-03-09T18:00:26.658Z,98528.20
2019-03-09T18:02:55.147Z,98522.86
2019-03-09T18:05:23.575Z,98520.31
2019-03-09T18:07:51.981Z,98513.28
2019-03-09T18:10:40.198Z,98514.27
2019-03-09T18:13:08.584Z,98517.91
2019-03-09T18:15:37.044Z,98519.72
2019-03-09T18:18:05.440Z,98518.86
2019-03-09T18:20:34.016Z,98506.49
2019-03-09T18:23:02.412Z,98508.45
2019-03-09T18:25:30.873Z,98501.39
2019-03-09T18:27:59.321Z,98502.38
2019-03-09T18:30:27.839Z,98503.35
2019-03-09T18:32:56.220Z,98496.33
2019-03-09T18:35:24.634Z,98490.98
2019-03-09T18:37:53.029Z,98483.92
2019-03-09T18:40:21.438Z,98481.41
2019-03-09T18:42:49.832Z,98475.21
2019-03-09T18:45:20.923Z,98471.68
2019-03-09T18:47:49.307Z,98473.52
2019-03-09T18:50:17.702Z,98462.11
2019-03-09T18:52:46.089Z,98467.44
2019-03-09T18:55:14.548Z,98454.34
2019-03-09T18:57:42.956Z,98456.06
2019-03-09T19:00:18.502Z,98429.38
2019-03-09T19:02:46.888Z,98432.98
2019-03-09T19:05:15.304Z,98407.28
2019-03-09T19:07:43.907Z,98411.91
2019-03-09T19:10:14.544Z,98415.29
2019-03-09T19:12:42.938Z,98419.80
2019-03-09T19:15:15.123Z,98414.58
2019-03-09T19:17:43.517Z,98417.25
2019-03-09T19:20:17.103Z,98407.52
2019-03-09T19:22:45.483Z,98404.85
2019-03-09T19:25:14.540Z,98411.91
2019-03-09T19:27:42.931Z,98415.53
2019-03-09T19:30:17.390Z,98410.19
2019-03-09T19:32:48.247Z,98402.34
2019-03-09T19:35:16.685Z,98405.84
2019-03-09T19:37:45.094Z,98406.81
2019-03-09T19:40:17.873Z,98397.12
2019-03-09T19:42:46.304Z,98396.14
2019-03-09T19:45:18.114Z,98401.48
2019-03-09T19:47:46.512Z,98405.12
2019-03-09T19:50:17.207Z,98408.74
2019-03-09T19:52:45.601Z,98404.27
2019-03-09T19:55:14.081Z,98408.74
2019-03-09T19:57:42.485Z,98409.72
2019-03-09T20:00:16.906Z,98412.39
2019-03-09T20:02:46.416Z,98410.70
2019-03-09T20:05:14.860Z,98406.19
2019-03-09T20:07:43.251Z,98413.37
2019-03-09T20:10:20.032Z,98440.05
2019-03-09T20:12:48.429Z,98433.73
2019-03-09T20:15:18.960Z,98378.69
2019-03-09T20:17:47.365Z,98405.24
2019-03-09T20:20:17.807Z,98412.39
2019-03-09T20:22:46.215Z,98408.03
2019-03-09T20:25:14.617Z,98415.30
2019-03-09T20:27:43.014Z,98400.27
2019-03-09T20:30:19.535Z,98393.24
2019-03-09T20:32:48.487Z,98382.57
2019-03-09T20:35:16.911Z,98370.22
2019-03-09T20:37:45.302Z,98370.22
2019-03-09T20:40:17.936Z,98364.11
2019-03-09T20:42:46.337Z,98365.09
2019-03-09T20:45:16.884Z,98359.75
2019-03-09T20:47:45.280Z,98357.20
2019-03-09T20:50:17.696Z,98355.52
2019-03-09T20:52:46.101Z,98355.52
2019-03-09T20:55:14.504Z,98349.32
2019-03-09T20:57:42.913Z,98347.63
2019-03-09T21:00:16.323Z,98341.56
2019-03-09T21:02:44.743Z,98339.87
2019-03-09T21:05:13.150Z,98336.34
2019-03-09T21:07:41.567Z,98326.53
2019-03-09T21:10:12.755Z,98334.66
2019-03-09T21:12:55.290Z,98324.11
2019-03-09T21:15:23.680Z,98321.44
2019-03-09T21:17:52.072Z,98319.75
2019-03-09T21:20:20.491Z,98323.39
2019-03-09T21:22:48.896Z,98313.70
2019-03-09T21:25:17.290Z,98313.83
2019-03-09T21:27:45.673Z,98326.30
2019-03-09T21:30:14.546Z,98320.27
2019-03-09T21:32:42.948Z,98307.88
2019-03-09T21:35:11.347Z,98303.40
2019-03-09T21:37:39.743Z,98302.55
2019-03-09T21:40:08.304Z,98307.88
2019-03-09T21:42:36.706Z,98303.64
2019-03-09T21:45:07.867Z,98296.50
2019-03-09T21:47:36.251Z,98358.66
2019-03-09T21:50:07.748Z,98369.33
2019-03-09T21:52:36.138Z,98350.55
2019-03-09T21:55:06.174Z,98315.87
2019-03-09T21:57:34.569Z,98300.73
2019-03-09T22:00:03.152Z,98293.59
2019-03-09T22:02:31.585Z,98292.62
2019-03-09T22:05:00.317Z,98295.28
2019-03-09T22:07:29.986Z,98295.28
2019-03-09T22:09:58.378Z,98280.26
2019-03-09T22:12:26.826Z,98274.92
2019-03-09T22:14:55.210Z,98266.92
2019-03-09T22:17:25.280Z,98261.59
2019-03-09T22:19:53.675Z,98252.73
2019-03-09T22:22:22.101Z,98247.40
2019-03-09T22:24:50.765Z,98235.05
2019-03-09T22:27:24.707Z,98234.06
2019-03-09T22:29:53.310Z,98222.81
2019-03-09T22:32:21.744Z,98219.17
2019-03-09T22:34:50.124Z,98206.81
2019-03-09T22:37:18.542Z,98202.31
2019-03-09T22:39:46.935Z,98200.63
2019-03-09T22:42:15.355Z,98193.61
2019-03-09T22:44:43.770Z,98190.08
2019-03-09T22:47:12.333Z,98191.06
2019-03-09T22:49:40.766Z,98190.33
2019-03-09T22:54:36.726Z,98175.31
2019-03-09T22:57:06.567Z,98176.29
2019-03-09T22:59:36.674Z,98165.63
2019-03-09T23:02:05.724Z,98162.95
2019-03-09T23:04:34.112Z,98148.77
2019-03-09T23:07:02.511Z,98143.56
2019-03-09T23:09:30.929Z,98141.87
2019-03-09T23:11:59.328Z,98130.62
2019-03-09T23:14:27.719Z,98110.25
2019-03-09T23:16:56.133Z,98087.37
2019-03-09T23:19:24.526Z,98095.64
2019-03-09T23:21:52.924Z,98094.91
2019-03-09T23:24:21.339Z,98108.36
2019-03-09T23:26:49.729Z,98107.53
2019-03-09T23:29:18.193Z,98100.48
2019-03-09T23:31:46.629Z,98102.45
2019-03-09T23:34:15.018Z,98118.44
2019-03-09T23:36:43.421Z,98119.42
2019-03-09T23:39:11.809Z,98125.70
2019-03-09T23:41:40.216Z,98123.03
2019-03-09T23:44:08.607Z,98108.02
2019-03-09T23:46:37.042Z,98086.70
2019-03-09T23:49:05.497Z,98083.18
2019-03-09T23:51:33.971Z,98094.70
2019-03-09T23:54:02.371Z,98085.84
2019-03-09T23:56:30.751Z,98089.48
2019-03-09T23:58:59.152Z,98083.33
